createdAt,value
2022-11-06T00:00:38.759Z,15.37
2022-11-06T00:03:07.886Z,13.50
2022-11-06T00:05:53.799Z,15.80
2022-11-06T00:08:33.215Z,12.03
2022-11-06T00:11:01.937Z,13.07
2022-11-06T00:13:30.935Z,11.93
2022-11-06T00:16:04.788Z,12.80
2022-11-06T00:18:33.339Z,11.33
2022-11-06T00:21:07.911Z,11.20
2022-11-06T00:23:37.944Z,10.53
2022-11-06T00:26:10.600Z,11.10
2022-11-06T00:28:39.455Z,10.73
2022-11-06T00:31:10.381Z,10.70
2022-11-06T00:33:38.645Z,12.10
2022-11-06T00:36:09.760Z,13.63
2022-11-06T00:38:39.293Z,11.53
2022-11-06T00:41:19.147Z,16.30
2022-11-06T00:43:51.458Z,13.33
2022-11-06T00:46:20.656Z,13.17
2022-11-06T00:48:49.984Z,11.73
2022-11-06T00:51:22.192Z,11.50
2022-11-06T00:53:56.438Z,11.97
2022-11-06T00:56:25.486Z,10.10
2022-11-06T00:58:54.119Z,15.00
2022-11-06T01:01:24.339Z,13.60
2022-11-06T01:03:56.502Z,12.77
2022-11-06T01:06:27.513Z,14.43
2022-11-06T01:08:57.899Z,13.13
2022-11-06T01:11:41.626Z,23.37
2022-11-06T01:14:20.744Z,16.57
2022-11-06T01:16:49.914Z,13.07
2022-11-06T01:19:20.756Z,15.73
2022-11-06T01:21:52.681Z,19.00
2022-11-06T01:24:25.002Z,14.20
2022-11-06T01:27:24.362Z,14.73
2022-11-06T01:29:42.093Z,13.63
2022-11-06T01:32:10.852Z,14.23
2022-11-06T01:34:39.189Z,12.83
2022-11-06T01:37:13.055Z,12.13
2022-11-06T01:39:44.163Z,12.03
2022-11-06T01:42:14.026Z,13.20
2022-11-06T01:45:21.918Z,11.07
2022-11-06T01:47:50.646Z,15.23
2022-11-06T01:50:20.504Z,11.77
2022-11-06T01:52:51.670Z,8.77
2022-11-06T01:55:30.390Z,11.33
2022-11-06T01:58:02.804Z,9.87
2022-11-06T02:00:32.482Z,9.50
2022-11-06T02:03:02.483Z,9.10
2022-11-06T02:05:31.553Z,9.33
2022-11-06T02:08:01.795Z,11.03
2022-11-06T02:10:31.936Z,11.60
2022-11-06T02:13:18.532Z,12.27
2022-11-06T02:15:52.485Z,15.27
2022-11-06T02:18:57.858Z,10.40
2022-11-06T02:22:09.399Z,13.20
2022-11-06T02:25:15.701Z,10.87
2022-11-06T02:27:50.428Z,9.87
2022-11-06T02:30:19.785Z,10.93
2022-11-06T02:32:57.873Z,12.57
2022-11-06T02:35:32.433Z,9.60
2022-11-06T02:38:06.771Z,9.77
2022-11-06T02:40:41.019Z,10.27
2022-11-06T02:43:11.835Z,9.33
2022-11-06T02:45:48.452Z,15.77
2022-11-06T02:48:22.331Z,14.43
2022-11-06T02:50:55.696Z,11.90
2022-11-06T02:53:27.319Z,11.67
2022-11-06T02:56:00.400Z,12.63
2022-11-06T02:58:39.256Z,15.20
2022-11-06T03:01:15.495Z,13.43
2022-11-06T03:03:49.586Z,12.33
2022-11-06T03:06:30.423Z,12.27
2022-11-06T03:09:07.562Z,10.97
2022-11-06T03:11:38.969Z,13.57
2022-11-06T03:14:19.612Z,10.20
2022-11-06T03:16:58.826Z,11.63
2022-11-06T03:19:33.647Z,9.67
2022-11-06T03:22:09.804Z,11.40
2022-11-06T03:24:47.842Z,11.50
2022-11-06T03:27:21.517Z,9.10
2022-11-06T03:29:57.904Z,13.30
2022-11-06T03:32:33.380Z,11.90
2022-11-06T03:35:10.139Z,12.30
2022-11-06T03:37:45.678Z,10.80
2022-11-06T03:40:21.282Z,14.70
2022-11-06T03:42:53.954Z,15.20
2022-11-06T03:45:27.664Z,15.37
2022-11-06T03:48:03.406Z,14.00
2022-11-06T03:50:38.703Z,13.13
2022-11-06T03:53:15.329Z,15.47
2022-11-06T03:55:49.802Z,15.87
2022-11-06T03:58:24.340Z,18.50
2022-11-06T04:00:57.710Z,17.17
2022-11-06T04:03:32.261Z,18.00
2022-11-06T04:06:11.526Z,18.97
2022-11-06T04:09:00.933Z,18.20
2022-11-06T04:11:49.929Z,15.27
2022-11-06T04:14:22.445Z,14.13
2022-11-06T04:16:56.095Z,16.30
2022-11-06T04:19:24.857Z,12.13
2022-11-06T04:22:24.955Z,17.13
2022-11-06T04:25:26.172Z,13.93
2022-11-06T04:28:09.114Z,14.10
2022-11-06T04:30:54.786Z,17.67
2022-11-06T04:33:31.297Z,12.80
2022-11-06T04:36:11.393Z,17.43
2022-11-06T04:38:48.386Z,12.53
2022-11-06T04:41:34.244Z,10.33
2022-11-06T04:44:10.839Z,12.10
2022-11-06T04:46:46.178Z,8.50
2022-11-06T04:49:16.915Z,12.53
2022-11-06T04:51:47.408Z,10.83
2022-11-06T04:54:17.084Z,9.70
2022-11-06T04:56:46.477Z,8.97
2022-11-06T04:59:18.329Z,10.63
2022-11-06T05:01:47.370Z,12.33
2022-11-06T05:04:17.048Z,13.37
2022-11-06T05:06:45.278Z,14.20
2022-11-06T05:09:13.453Z,14.50
2022-11-06T05:11:41.555Z,17.53
2022-11-06T05:14:09.782Z,16.03
2022-11-06T05:16:37.945Z,26.03
2022-11-06T05:19:06.194Z,25.57
2022-11-06T05:21:53.301Z,45.23
2022-11-06T05:24:21.374Z,47.97
2022-11-06T05:26:52.335Z,55.37
2022-11-06T05:29:24.375Z,40.73
2022-11-06T05:31:52.500Z,29.50
2022-11-06T05:34:20.725Z,36.10
2022-11-06T05:36:50.276Z,21.03
2022-11-06T05:39:18.387Z,22.13
2022-11-06T05:41:46.542Z,11.40
2022-11-06T05:44:14.806Z,10.27
2022-11-06T05:46:48.730Z,7.90
2022-11-06T05:49:18.532Z,7.47
2022-11-06T05:51:46.810Z,8.87
2022-11-06T05:54:16.457Z,8.50
2022-11-06T05:56:44.534Z,10.23
2022-11-06T05:59:13.096Z,13.83
2022-11-06T06:01:41.437Z,12.20
2022-11-06T06:04:09.689Z,25.13
2022-11-06T06:06:38.670Z,14.00
2022-11-06T06:09:06.905Z,12.23
2022-11-06T06:11:36.384Z,9.40
2022-11-06T06:14:04.593Z,15.13
2022-11-06T06:16:32.736Z,16.50
2022-11-06T06:19:00.909Z,17.23
2022-11-06T06:21:29.044Z,22.53
2022-11-06T06:23:57.127Z,12.73
2022-11-06T06:26:25.477Z,18.77
2022-11-06T06:28:55.132Z,16.37
2022-11-06T06:31:23.580Z,10.63
2022-11-06T06:33:51.857Z,16.80
2022-11-06T06:36:20.139Z,20.83
2022-11-06T06:38:48.299Z,10.83
2022-11-06T06:41:16.585Z,21.87
2022-11-06T06:43:44.940Z,18.17
2022-11-06T06:46:14.475Z,19.47
2022-11-06T06:48:42.869Z,35.03
2022-11-06T06:51:11.183Z,32.87
2022-11-06T06:53:39.452Z,19.57
2022-11-06T06:56:08.635Z,16.40
2022-11-06T06:58:36.780Z,49.33
2022-11-06T07:01:10.241Z,28.93
2022-11-06T07:03:40.770Z,33.83
2022-11-06T07:06:09.236Z,19.23
2022-11-06T07:08:37.379Z,25.10
2022-11-06T07:11:08.750Z,51.33
2022-11-06T07:13:37.322Z,22.27
2022-11-06T07:16:07.626Z,19.97
2022-11-06T07:18:37.238Z,22.33
2022-11-06T07:21:09.006Z,22.57
2022-11-06T07:23:37.796Z,16.73
2022-11-06T07:26:07.180Z,22.30
2022-11-06T07:28:35.779Z,19.10
2022-11-06T07:31:07.038Z,14.97
2022-11-06T07:33:36.664Z,33.30
2022-11-06T07:36:09.109Z,18.37
2022-11-06T07:38:38.644Z,18.73
2022-11-06T07:41:09.705Z,19.97
2022-11-06T07:43:38.523Z,18.73
2022-11-06T07:46:10.394Z,20.03
2022-11-06T07:48:39.498Z,15.07
2022-11-06T07:51:12.234Z,22.73
2022-11-06T07:53:41.200Z,18.33
2022-11-06T07:56:09.913Z,20.60
2022-11-06T07:58:38.724Z,21.40
2022-11-06T08:01:07.526Z,29.27
2022-11-06T08:03:35.690Z,20.17
2022-11-06T08:06:05.883Z,25.70
2022-11-06T08:08:35.474Z,18.07
2022-11-06T08:11:04.431Z,19.57
2022-11-06T08:13:33.964Z,25.10
2022-11-06T08:16:06.185Z,17.83
2022-11-06T08:18:34.969Z,18.23
2022-11-06T08:21:03.645Z,21.27
2022-11-06T08:23:31.781Z,20.97
2022-11-06T08:26:04.601Z,20.93
2022-11-06T08:28:32.721Z,17.63
2022-11-06T08:31:05.781Z,19.47
2022-11-06T08:33:34.983Z,21.13
2022-11-06T08:36:04.421Z,19.43
2022-11-06T08:38:32.978Z,20.33
2022-11-06T08:41:06.466Z,18.27
2022-11-06T08:43:35.212Z,19.80
2022-11-06T08:46:04.568Z,22.83
2022-11-06T08:48:34.033Z,22.67
2022-11-06T08:51:02.769Z,20.63
2022-11-06T08:53:30.974Z,23.77
2022-11-06T08:55:59.078Z,24.37
2022-11-06T08:58:28.576Z,21.73
2022-11-06T09:00:56.799Z,23.10
2022-11-06T09:03:24.917Z,21.73
2022-11-06T09:05:53.033Z,22.27
2022-11-06T09:08:21.119Z,22.27
2022-11-06T09:10:50.445Z,20.23
2022-11-06T09:13:20.468Z,21.13
2022-11-06T09:15:50.185Z,16.87
2022-11-06T09:18:18.299Z,21.23
2022-11-06T09:20:46.456Z,19.00
2022-11-06T09:23:15.023Z,18.73
2022-11-06T09:25:43.358Z,20.83
2022-11-06T09:28:11.473Z,22.17
2022-11-06T09:30:39.717Z,23.10
2022-11-06T09:33:13.283Z,20.00
2022-11-06T09:35:42.481Z,22.43
2022-11-06T09:38:15.293Z,21.93
2022-11-06T09:40:50.755Z,19.07
2022-11-06T09:44:03.542Z,19.20
2022-11-06T09:46:30.512Z,17.33
2022-11-06T09:49:11.965Z,17.40
2022-11-06T09:51:49.785Z,16.40
2022-11-06T09:54:27.534Z,17.80
2022-11-06T09:57:02.224Z,15.77
2022-11-06T09:59:37.182Z,14.73
2022-11-06T10:02:22.740Z,17.87
2022-11-06T10:05:03.432Z,16.53
2022-11-06T10:07:36.184Z,11.70
2022-11-06T10:10:08.655Z,14.77
2022-11-06T10:12:58.742Z,13.97
2022-11-06T10:15:34.348Z,13.80
2022-11-06T10:18:14.132Z,14.83
2022-11-06T10:20:53.200Z,14.40
2022-11-06T10:23:37.537Z,15.80
2022-11-06T10:26:13.399Z,12.50
2022-11-06T10:29:21.878Z,13.03
2022-11-06T10:32:09.338Z,14.37
2022-11-06T10:34:43.618Z,13.80
2022-11-06T10:37:20.716Z,17.20
2022-11-06T10:39:51.132Z,15.47
2022-11-06T10:42:22.915Z,16.20
2022-11-06T10:44:59.004Z,15.43
2022-11-06T10:47:33.737Z,14.83
2022-11-06T10:50:08.199Z,16.77
2022-11-06T10:52:51.816Z,17.07
2022-11-06T10:55:57.304Z,17.53
2022-11-06T10:58:31.360Z,21.13
2022-11-06T11:01:03.421Z,16.93
2022-11-06T11:03:35.674Z,19.13
2022-11-06T11:06:05.431Z,17.90
2022-11-06T11:08:40.213Z,16.67
2022-11-06T11:11:23.557Z,15.87
2022-11-06T11:14:15.774Z,15.73
2022-11-06T11:16:46.600Z,15.03
2022-11-06T11:19:35.034Z,16.83
2022-11-06T11:22:06.375Z,15.10
2022-11-06T11:24:35.624Z,15.33
2022-11-06T11:27:08.242Z,15.45
2022-11-06T11:29:48.403Z,15.60
2022-11-06T11:32:21.372Z,16.70
2022-11-06T11:34:56.654Z,15.90
2022-11-06T11:37:30.795Z,14.97
2022-11-06T11:40:22.249Z,19.05
2022-11-06T11:42:50.863Z,17.25
2022-11-06T11:45:22.512Z,15.80
2022-11-06T11:47:52.924Z,15.45
2022-11-06T11:50:33.264Z,15.85
2022-11-06T11:53:10.554Z,12.97
2022-11-06T11:55:45.588Z,14.20
2022-11-06T11:58:23.307Z,12.77
2022-11-06T12:00:57.562Z,14.57
2022-11-06T12:03:31.046Z,15.82
2022-11-06T12:06:10.232Z,13.40
2022-11-06T12:08:42.445Z,14.20
2022-11-06T12:11:17.471Z,13.27
2022-11-06T12:13:45.580Z,14.43
2022-11-06T12:16:20.734Z,14.65
2022-11-06T12:18:58.499Z,15.63
2022-11-06T12:21:33.943Z,13.40
2022-11-06T12:24:12.246Z,13.53
2022-11-06T12:26:47.648Z,13.65
2022-11-06T12:29:20.782Z,11.77
2022-11-06T12:31:59.596Z,11.60
2022-11-06T12:34:38.409Z,12.93
2022-11-06T12:37:21.864Z,11.60
2022-11-06T12:40:01.867Z,10.50
2022-11-06T12:42:34.790Z,9.97
2022-11-06T12:45:03.610Z,13.73
2022-11-06T12:47:49.583Z,12.57
2022-11-06T12:50:33.734Z,11.80
2022-11-06T12:53:20.173Z,11.53
2022-11-06T12:56:00.089Z,12.57
2022-11-06T12:59:00.631Z,11.80
2022-11-06T13:01:46.754Z,16.60
2022-11-06T13:04:43.052Z,13.52
2022-11-06T13:07:44.371Z,11.80
2022-11-06T13:10:35.136Z,11.15
2022-11-06T13:13:29.107Z,13.38
2022-11-06T13:16:11.498Z,12.07
2022-11-06T13:18:52.860Z,10.80
2022-11-06T13:21:34.232Z,11.13
2022-11-06T13:24:11.499Z,11.52
2022-11-06T13:26:48.210Z,9.67
2022-11-06T13:29:19.093Z,10.40
2022-11-06T13:31:54.198Z,9.02
2022-11-06T13:34:28.816Z,10.48
2022-11-06T13:36:59.212Z,11.07
2022-11-06T13:39:35.148Z,12.02
2022-11-06T13:42:18.300Z,11.73
2022-11-06T13:44:46.737Z,10.13
2022-11-06T13:47:22.571Z,12.63
2022-11-06T13:50:06.401Z,11.63
2022-11-06T13:52:46.367Z,14.77
2022-11-06T13:55:24.775Z,10.85
2022-11-06T13:58:25.085Z,13.48
2022-11-06T14:01:12.425Z,14.63
2022-11-06T14:04:15.697Z,13.10
2022-11-06T14:06:45.821Z,13.57
2022-11-06T14:09:22.103Z,12.75
2022-11-06T14:11:56.742Z,13.32
2022-11-06T14:14:28.433Z,14.10
2022-11-06T14:17:21.979Z,13.43
2022-11-06T14:20:28.947Z,12.45
2022-11-06T14:23:17.120Z,14.45
2022-11-06T14:26:00.963Z,13.35
2022-11-06T14:28:34.828Z,11.50
2022-11-06T14:31:12.036Z,11.68
2022-11-06T14:34:02.695Z,13.33
2022-11-06T14:36:37.405Z,13.20
2022-11-06T14:39:14.386Z,12.90
2022-11-06T14:42:00.538Z,11.60
2022-11-06T14:44:50.415Z,11.77
2022-11-06T14:47:36.925Z,12.13
2022-11-06T14:50:24.596Z,11.47
2022-11-06T14:52:56.658Z,13.40
2022-11-06T14:55:31.601Z,12.02
2022-11-06T14:58:16.571Z,12.52
2022-11-06T15:00:52.076Z,12.65
2022-11-06T15:03:29.661Z,11.07
2022-11-06T15:06:06.299Z,12.07
2022-11-06T15:09:00.690Z,12.90
2022-11-06T15:11:55.632Z,11.50
2022-11-06T15:15:11.189Z,12.23
2022-11-06T15:17:40.862Z,12.23
2022-11-06T15:20:27.439Z,14.13
2022-11-06T15:23:24.219Z,13.67
2022-11-06T15:26:03.683Z,12.87
2022-11-06T15:28:42.501Z,15.03
2022-11-06T15:31:18.498Z,13.43
2022-11-06T15:34:01.007Z,11.20
2022-11-06T15:36:33.619Z,13.23
2022-11-06T15:39:02.076Z,12.03
2022-11-06T15:41:30.834Z,13.30
2022-11-06T15:43:59.797Z,17.77
2022-11-06T15:46:30.573Z,21.27
2022-11-06T15:49:17.478Z,25.10
2022-11-06T15:51:57.082Z,18.60
2022-11-06T15:54:37.061Z,16.00
2022-11-06T15:57:15.471Z,14.57
2022-11-06T15:59:43.855Z,16.07
2022-11-06T16:02:19.309Z,14.43
2022-11-06T16:04:49.614Z,14.40
2022-11-06T16:07:19.941Z,14.80
2022-11-06T16:09:49.003Z,13.07
2022-11-06T16:12:19.500Z,14.60
2022-11-06T16:14:47.639Z,15.27
2022-11-06T16:17:26.424Z,14.37
2022-11-06T16:19:59.609Z,14.03
2022-11-06T16:22:32.209Z,14.33
2022-11-06T16:25:05.303Z,13.17
2022-11-06T16:27:36.867Z,16.77
2022-11-06T16:30:07.354Z,14.80
2022-11-06T16:32:42.022Z,16.27
2022-11-06T16:35:32.255Z,17.33
2022-11-06T16:38:43.991Z,18.63
2022-11-06T16:41:35.157Z,19.57
2022-11-06T16:44:31.234Z,19.30
2022-11-06T16:47:18.684Z,18.60
2022-11-06T16:49:54.068Z,19.93
2022-11-06T16:52:27.559Z,19.47
2022-11-06T16:55:00.399Z,18.77
2022-11-06T16:57:33.381Z,18.97
2022-11-06T17:00:07.019Z,17.43
2022-11-06T17:02:39.033Z,18.03
2022-11-06T17:05:21.850Z,18.57
2022-11-06T17:08:05.123Z,20.13
2022-11-06T17:10:42.680Z,23.60
2022-11-06T17:13:19.486Z,39.33
2022-11-06T17:15:50.119Z,40.93
2022-11-06T17:18:22.078Z,37.90
2022-11-06T17:20:56.435Z,31.47
2022-11-06T17:23:25.848Z,32.77
2022-11-06T17:25:59.943Z,35.90
2022-11-06T17:28:28.198Z,37.73
2022-11-06T17:30:56.475Z,30.87
2022-11-06T17:33:25.042Z,28.53
2022-11-06T17:35:54.597Z,23.97
2022-11-06T17:38:22.848Z,25.23
2022-11-06T17:40:50.973Z,31.23
2022-11-06T17:43:19.142Z,32.30
2022-11-06T17:45:49.884Z,26.97
2022-11-06T17:48:19.174Z,29.27
2022-11-06T17:51:04.834Z,43.23
2022-11-06T17:53:34.542Z,36.40
2022-11-06T17:56:05.580Z,36.60
2022-11-06T17:58:34.608Z,29.40
2022-11-06T18:01:08.624Z,27.63
2022-11-06T18:03:44.510Z,30.67
2022-11-06T18:06:14.139Z,34.43
2022-11-06T18:08:44.588Z,32.97
2022-11-06T18:11:13.445Z,39.30
2022-11-06T18:13:41.857Z,45.83
2022-11-06T18:16:17.507Z,53.53
2022-11-06T18:18:45.667Z,48.70
2022-11-06T18:21:13.865Z,33.77
2022-11-06T18:23:43.692Z,32.27
2022-11-06T18:26:12.955Z,28.87
2022-11-06T18:28:41.407Z,29.90
2022-11-06T18:31:09.922Z,37.90
2022-11-06T18:33:38.009Z,33.63
2022-11-06T18:36:10.322Z,30.57
2022-11-06T18:38:40.881Z,29.03
2022-11-06T18:41:12.138Z,29.80
2022-11-06T18:43:40.539Z,27.50
2022-11-06T18:46:11.192Z,24.23
2022-11-06T18:48:39.580Z,23.37
2022-11-06T18:51:09.272Z,26.37
2022-11-06T18:53:38.916Z,28.17
2022-11-06T18:56:12.170Z,31.07
2022-11-06T18:58:41.222Z,34.80
2022-11-06T19:01:12.294Z,31.93
2022-11-06T19:03:41.929Z,32.50
2022-11-06T19:06:14.158Z,39.60
2022-11-06T19:08:43.713Z,42.63
2022-11-06T19:11:15.989Z,44.07
2022-11-06T19:13:47.911Z,46.00
2022-11-06T19:16:19.151Z,33.10
2022-11-06T19:21:30.019Z,26.80
2022-11-06T19:24:03.907Z,29.13
2022-11-06T19:26:35.860Z,28.60
2022-11-06T19:29:05.350Z,24.70
2022-11-06T19:31:34.046Z,26.50
2022-11-06T19:34:03.316Z,24.83
2022-11-06T19:36:32.796Z,26.50
2022-11-06T19:39:01.291Z,26.47
2022-11-06T19:41:30.176Z,27.90
2022-11-06T19:44:00.070Z,26.20
2022-11-06T19:46:35.101Z,22.10
2022-11-06T19:49:05.081Z,21.67
2022-11-06T19:51:34.368Z,22.67
2022-11-06T19:54:02.918Z,21.73
2022-11-06T19:56:31.103Z,19.43
2022-11-06T19:59:01.980Z,24.10
2022-11-06T20:01:30.276Z,22.80
2022-11-06T20:03:58.620Z,23.70
2022-11-06T20:06:27.835Z,26.03
2022-11-06T20:08:56.206Z,22.50
2022-11-06T20:11:24.734Z,26.43
2022-11-06T20:13:52.922Z,22.70
2022-11-06T20:16:23.047Z,22.43
2022-11-06T20:18:53.023Z,19.53
2022-11-06T20:21:22.385Z,18.73
2022-11-06T20:23:50.997Z,19.17
2022-11-06T20:26:19.852Z,20.03
2022-11-06T20:28:48.493Z,19.70
2022-11-06T20:31:20.019Z,18.50
2022-11-06T20:33:50.452Z,20.13
2022-11-06T20:36:22.909Z,22.63
2022-11-06T20:38:51.746Z,23.60
2022-11-06T20:41:20.007Z,23.63
2022-11-06T20:43:48.702Z,20.47
2022-11-06T20:46:18.675Z,21.70
2022-11-06T20:48:49.546Z,23.97
2022-11-06T20:51:21.238Z,18.43
2022-11-06T20:53:50.084Z,24.50
2022-11-06T20:56:21.447Z,21.27
2022-11-06T20:58:49.834Z,21.20
2022-11-06T21:01:21.634Z,21.80
2022-11-06T21:03:52.671Z,21.70
2022-11-06T21:06:24.265Z,20.13
2022-11-06T21:08:52.894Z,20.07
2022-11-06T21:11:23.463Z,18.60
2022-11-06T21:13:55.025Z,20.13
2022-11-06T21:16:25.697Z,18.47
2022-11-06T21:18:55.754Z,22.40
2022-11-06T21:21:26.581Z,20.27
2022-11-06T21:23:56.325Z,22.63
2022-11-06T21:26:27.896Z,20.40
2022-11-06T21:28:56.167Z,21.90
2022-11-06T21:31:27.413Z,19.63
2022-11-06T21:34:00.502Z,21.30
2022-11-06T21:36:31.801Z,23.57
2022-11-06T21:39:02.886Z,18.00
2022-11-06T21:41:34.008Z,18.13
2022-11-06T21:44:02.836Z,17.73
2022-11-06T21:46:31.292Z,17.70
2022-11-06T21:49:01.056Z,18.90
2022-11-06T21:51:31.567Z,15.53
2022-11-06T21:54:18.994Z,17.57
2022-11-06T21:56:50.612Z,15.27
2022-11-06T21:59:25.351Z,17.40
2022-11-06T22:01:54.211Z,23.87
2022-11-06T22:04:24.111Z,20.80
2022-11-06T22:06:54.777Z,19.33
2022-11-06T22:09:25.630Z,17.67
2022-11-06T22:11:54.557Z,15.53
2022-11-06T22:14:22.924Z,16.23
2022-11-06T22:16:51.083Z,16.77
2022-11-06T22:19:19.265Z,14.87
2022-11-06T22:21:48.710Z,16.67
2022-11-06T22:24:17.069Z,17.17
2022-11-06T22:26:45.230Z,14.93
2022-11-06T22:29:15.604Z,17.17
2022-11-06T22:31:44.233Z,16.07
2022-11-06T22:34:13.358Z,14.83
2022-11-06T22:36:42.609Z,14.43
2022-11-06T22:39:13.396Z,13.70
2022-11-06T22:41:42.271Z,14.63
2022-11-06T22:44:12.484Z,15.77
2022-11-06T22:46:41.052Z,13.90
2022-11-06T22:49:09.756Z,14.07
2022-11-06T22:51:38.117Z,13.37
2022-11-06T22:54:06.927Z,12.23
2022-11-06T22:56:36.614Z,13.03
2022-11-06T22:59:08.779Z,12.43
2022-11-06T23:01:42.339Z,13.13
2022-11-06T23:04:15.676Z,13.80
2022-11-06T23:06:45.417Z,13.07
2022-11-06T23:09:14.466Z,13.47
2022-11-06T23:11:47.103Z,12.17
2022-11-06T23:14:15.320Z,13.23
2022-11-06T23:16:58.914Z,11.97
2022-11-06T23:19:29.388Z,14.70
2022-11-06T23:22:11.570Z,11.60
2022-11-06T23:24:39.993Z,12.90
2022-11-06T23:27:10.983Z,12.73
2022-11-06T23:29:40.147Z,11.70
2022-11-06T23:32:08.594Z,11.10
2022-11-06T23:34:36.692Z,10.63
2022-11-06T23:37:04.830Z,11.23
2022-11-06T23:39:32.954Z,11.80
2022-11-06T23:42:01.085Z,9.97
2022-11-06T23:44:48.043Z,9.90
2022-11-06T23:47:16.236Z,10.47
2022-11-06T23:49:44.353Z,10.93
2022-11-06T23:52:12.414Z,9.60
2022-11-06T23:54:40.589Z,11.47
2022-11-06T23:57:09.449Z,10.23
2022-11-06T23:59:39.217Z,9.07
